Ardara, Pennsylvania
Current Conditions -  °F | °C
As of 6:53 PM on Friday 31 Oct 2014 (Local Time) from KAGC Reporting Station
Light Rain Light Rain  
Wind Chill: 42°   Ceiling: 3400
Heat Index: 42°   Visibility: 4mi
Dew Point: 37°   Wind: 0mph
Humidity: 82%   Direction: NA
Pressure: 29.86"   Gusts: NA
Location:  40.36°N, 79.73°W
Report Text: KAGC 312253Z 00000KT 4SM -RA BKN034 OVC045 06/03 A2986 RMK AO2 SLP124 P0002 T00560028
Loading
Personal Weather Stations






























Interactive Weather Map
Tropical Storm Tracking
New forecast layout! Learn more

10-Day Weather Forecast

Advertisements
Track Severe Weather on mobile